createdAt,value
2018-06-19T00:02:22.355Z,17.50
2018-06-19T00:04:50.625Z,11.93
2018-06-19T00:07:18.881Z,17.60
2018-06-19T00:09:47.176Z,10.07
2018-06-19T00:12:15.432Z,11.83
2018-06-19T00:14:43.704Z,12.80
2018-06-19T00:17:12.040Z,8.10
2018-06-19T00:19:44.716Z,8.80
2018-06-19T00:22:13.005Z,13.57
2018-06-19T00:24:41.240Z,8.67
2018-06-19T00:27:09.511Z,12.10
2018-06-19T00:29:37.933Z,7.37
2018-06-19T00:32:06.260Z,15.23
2018-06-19T00:34:34.588Z,16.20
2018-06-19T00:37:02.852Z,6.97
2018-06-19T00:39:30.858Z,12.57
2018-06-19T00:41:59.106Z,10.20
2018-06-19T00:44:27.386Z,12.40
2018-06-19T00:46:56.067Z,19.60
2018-06-19T00:49:24.333Z,7.07
2018-06-19T00:51:52.597Z,12.73
2018-06-19T00:54:20.845Z,12.33
2018-06-19T00:56:53.428Z,12.90
2018-06-19T00:59:21.782Z,8.27
2018-06-19T01:01:50.328Z,18.40
2018-06-19T01:04:18.606Z,6.80
2018-06-19T01:06:46.960Z,9.67
2018-06-19T01:09:16.098Z,10.73
2018-06-19T01:11:44.372Z,12.33
2018-06-19T01:14:12.653Z,20.40
2018-06-19T01:16:40.915Z,7.27
2018-06-19T01:19:09.164Z,7.87
2018-06-19T01:21:37.663Z,8.70
2018-06-19T01:24:05.953Z,9.00
2018-06-19T01:26:34.193Z,14.23
2018-06-19T01:29:02.615Z,10.60
2018-06-19T01:31:30.863Z,9.30
2018-06-19T01:33:59.127Z,12.97
2018-06-19T01:36:27.388Z,11.60
2018-06-19T01:38:55.840Z,12.23
2018-06-19T01:41:24.152Z,10.30
2018-06-19T01:43:52.429Z,9.87
2018-06-19T01:46:20.676Z,7.30
2018-06-19T01:48:48.960Z,12.70
2018-06-19T01:51:17.221Z,14.27
2018-06-19T01:53:45.479Z,12.70
2018-06-19T01:56:13.741Z,15.70
2018-06-19T01:58:41.997Z,9.30
2018-06-19T02:01:10.265Z,8.37
2018-06-19T02:03:38.496Z,11.67
2018-06-19T02:06:06.769Z,10.07
2018-06-19T02:08:35.005Z,14.63
2018-06-19T02:11:03.257Z,24.20
2018-06-19T02:13:31.512Z,15.70
2018-06-19T02:15:59.772Z,12.97
2018-06-19T02:18:28.038Z,14.27
2018-06-19T02:20:56.755Z,13.10
2018-06-19T02:23:25.000Z,19.83
2018-06-19T02:25:53.324Z,20.50
2018-06-19T02:28:21.608Z,11.87
2018-06-19T02:30:49.909Z,28.23
2018-06-19T02:33:18.204Z,12.83
2018-06-19T02:35:46.473Z,14.30
2018-06-19T02:38:14.800Z,14.83
2018-06-19T02:40:43.184Z,14.47
2018-06-19T02:43:11.467Z,12.67
2018-06-19T02:45:39.848Z,14.47
2018-06-19T02:48:07.920Z,14.03
2018-06-19T02:50:36.306Z,11.17
2018-06-19T02:53:04.838Z,14.23
2018-06-19T02:55:33.117Z,21.70
2018-06-19T02:58:01.564Z,20.93
2018-06-19T03:00:30.056Z,18.73
2018-06-19T03:02:58.279Z,14.37
2018-06-19T03:05:26.539Z,17.47
2018-06-19T03:07:54.824Z,16.93
2018-06-19T03:10:23.105Z,15.07
2018-06-19T03:12:51.377Z,19.10
2018-06-19T03:15:19.641Z,25.23
2018-06-19T03:17:47.931Z,22.57
2018-06-19T03:20:16.278Z,12.37
2018-06-19T03:22:46.613Z,15.60
2018-06-19T03:25:14.827Z,29.53
2018-06-19T03:27:43.149Z,22.77
2018-06-19T03:30:11.542Z,20.73
2018-06-19T03:32:39.740Z,11.70
2018-06-19T03:35:08.004Z,13.73
2018-06-19T03:37:36.277Z,16.63
2018-06-19T03:40:04.556Z,23.10
2018-06-19T03:42:32.832Z,17.90
2018-06-19T03:45:01.097Z,19.53
2018-06-19T03:47:29.359Z,18.03
2018-06-19T03:49:57.848Z,28.30
2018-06-19T03:52:26.116Z,13.50
2018-06-19T03:54:54.402Z,16.33
2018-06-19T03:57:22.685Z,21.77
2018-06-19T03:59:50.931Z,19.67
2018-06-19T04:02:19.227Z,18.90
2018-06-19T04:04:47.536Z,18.80
2018-06-19T04:07:15.788Z,20.13
2018-06-19T04:09:44.053Z,19.33
2018-06-19T04:12:12.518Z,21.40
2018-06-19T04:14:40.796Z,27.03
2018-06-19T04:17:13.336Z,24.50
2018-06-19T04:19:41.662Z,23.93
2018-06-19T04:22:09.919Z,15.20
2018-06-19T04:24:38.248Z,22.57
2018-06-19T04:27:06.487Z,14.30
2018-06-19T04:29:34.813Z,24.50
2018-06-19T04:32:03.045Z,20.63
2018-06-19T04:34:31.314Z,31.43
2018-06-19T04:36:59.563Z,21.53
2018-06-19T04:39:27.910Z,23.50
2018-06-19T04:41:56.249Z,13.30
2018-06-19T04:44:24.436Z,19.03
2018-06-19T04:46:52.688Z,20.40
2018-06-19T04:49:20.953Z,28.30
2018-06-19T04:51:49.518Z,23.90
2018-06-19T04:54:17.769Z,17.83
2018-06-19T04:56:46.060Z,23.70
2018-06-19T04:59:14.293Z,22.40
2018-06-19T05:01:42.548Z,23.10
2018-06-19T05:04:10.799Z,35.47
2018-06-19T05:06:39.085Z,25.83
2018-06-19T05:09:10.009Z,24.83
2018-06-19T05:11:38.232Z,20.70
2018-06-19T05:14:06.804Z,21.83
2018-06-19T05:16:35.057Z,23.20
2018-06-19T05:19:03.366Z,29.37
2018-06-19T05:21:31.640Z,20.33
2018-06-19T05:23:59.972Z,30.40
2018-06-19T05:26:28.245Z,27.93
2018-06-19T05:28:56.872Z,22.27
2018-06-19T05:31:25.183Z,21.43
2018-06-19T05:33:53.463Z,36.00
2018-06-19T05:36:21.772Z,40.77
2018-06-19T05:38:50.235Z,23.37
2018-06-19T05:41:18.554Z,26.97
2018-06-19T05:43:46.862Z,33.10
2018-06-19T05:46:15.196Z,26.50
2018-06-19T05:48:43.452Z,25.70
2018-06-19T05:51:11.700Z,30.30
2018-06-19T05:53:39.932Z,36.43
2018-06-19T05:56:09.455Z,33.90
2018-06-19T05:58:38.382Z,31.50
2018-06-19T06:01:06.955Z,29.30
2018-06-19T06:03:35.500Z,34.97
2018-06-19T06:06:04.142Z,29.50
2018-06-19T06:08:32.726Z,36.07
2018-06-19T06:11:01.734Z,35.80
2018-06-19T06:13:30.487Z,30.70
2018-06-19T06:15:58.731Z,37.73
2018-06-19T06:18:27.908Z,30.40
2018-06-19T06:20:56.364Z,29.60
2018-06-19T06:23:24.656Z,35.20
2018-06-19T06:25:53.163Z,40.40
2018-06-19T06:28:21.535Z,44.93
2018-06-19T06:30:50.167Z,32.30
2018-06-19T06:33:18.517Z,40.17
2018-06-19T06:35:46.991Z,33.10
2018-06-19T06:38:16.023Z,41.67
2018-06-19T06:40:45.518Z,42.30
2018-06-19T06:43:13.930Z,38.17
2018-06-19T06:45:42.306Z,28.53
2018-06-19T06:48:10.955Z,37.03
2018-06-19T06:50:40.168Z,36.57
2018-06-19T06:53:09.690Z,56.60
2018-06-19T06:55:40.490Z,42.33
2018-06-19T06:58:09.533Z,35.63
2018-06-19T07:00:38.810Z,37.90
2018-06-19T07:03:14.440Z,48.43
2018-06-19T07:05:43.483Z,45.83
2018-06-19T07:08:11.732Z,37.20
2018-06-19T07:10:40.664Z,40.07
2018-06-19T07:13:09.271Z,44.43
2018-06-19T07:15:37.982Z,42.07
2018-06-19T07:18:07.156Z,51.30
2018-06-19T07:20:35.996Z,47.43
2018-06-19T07:23:04.844Z,47.60
2018-06-19T07:25:33.413Z,46.97
2018-06-19T07:28:02.323Z,37.37
2018-06-19T07:30:30.907Z,50.83
2018-06-19T07:32:59.155Z,57.07
2018-06-19T07:35:28.314Z,51.57
2018-06-19T07:37:56.605Z,48.60
2018-06-19T07:40:24.788Z,58.83
2018-06-19T07:42:53.056Z,48.90
2018-06-19T07:45:21.396Z,47.80
2018-06-19T07:47:49.683Z,51.30
2018-06-19T07:50:17.940Z,49.27
2018-06-19T07:52:46.211Z,43.73
2018-06-19T07:55:14.468Z,54.70
2018-06-19T07:57:49.308Z,65.87
2018-06-19T08:00:17.659Z,41.20
2018-06-19T08:02:45.928Z,47.07
2018-06-19T08:05:14.257Z,59.33
2018-06-19T08:07:42.534Z,43.87
2018-06-19T08:10:10.807Z,46.23
2018-06-19T08:12:39.049Z,48.33
2018-06-19T08:15:07.336Z,43.87
2018-06-19T08:17:35.583Z,47.63
2018-06-19T08:20:03.871Z,40.77
2018-06-19T08:22:32.165Z,52.80
2018-06-19T08:25:00.420Z,46.37
2018-06-19T08:27:28.659Z,41.07
2018-06-19T08:29:57.000Z,39.73
2018-06-19T08:32:25.268Z,34.77
2018-06-19T08:34:53.528Z,50.10
2018-06-19T08:37:21.770Z,46.60
2018-06-19T08:39:50.032Z,45.93
2018-06-19T08:42:18.309Z,37.00
2018-06-19T08:44:46.550Z,35.50
2018-06-19T08:47:14.532Z,43.67
2018-06-19T08:49:42.827Z,38.13
2018-06-19T08:52:11.279Z,45.00
2018-06-19T08:54:39.517Z,40.13
2018-06-19T08:57:07.768Z,42.47
2018-06-19T08:59:36.099Z,38.77
2018-06-19T09:02:04.399Z,37.40
2018-06-19T09:04:32.693Z,41.80
2018-06-19T09:07:00.988Z,42.90
2018-06-19T09:09:29.269Z,30.37
2018-06-19T09:11:57.483Z,35.20
2018-06-19T09:14:25.809Z,35.37
2018-06-19T09:16:54.057Z,34.77
2018-06-19T09:19:22.329Z,35.73
2018-06-19T09:21:50.584Z,38.03
2018-06-19T09:24:18.950Z,34.67
2018-06-19T09:26:47.145Z,35.20
2018-06-19T09:29:15.451Z,35.53
2018-06-19T09:31:43.860Z,46.63
2018-06-19T09:34:12.172Z,33.17
2018-06-19T09:36:47.231Z,36.33
2018-06-19T09:39:15.503Z,36.53
2018-06-19T09:41:44.784Z,29.13
2018-06-19T09:44:13.115Z,34.50
2018-06-19T09:46:41.673Z,29.80
2018-06-19T09:49:09.996Z,31.63
2018-06-19T09:51:39.018Z,23.47
2018-06-19T09:54:07.273Z,29.23
2018-06-19T09:56:35.544Z,26.97
2018-06-19T09:59:04.204Z,27.23
2018-06-19T10:01:32.503Z,22.90
2018-06-19T10:04:00.768Z,31.10
2018-06-19T10:06:29.285Z,28.00
2018-06-19T10:08:57.491Z,25.90
2018-06-19T10:11:25.804Z,27.50
2018-06-19T10:13:54.085Z,25.73
2018-06-19T10:16:22.355Z,26.00
2018-06-19T10:18:50.636Z,22.57
2018-06-19T10:21:18.936Z,24.17
2018-06-19T10:23:47.239Z,24.43
2018-06-19T10:26:16.059Z,25.80
2018-06-19T10:28:44.369Z,28.63
2018-06-19T10:31:12.679Z,21.30
2018-06-19T10:33:40.933Z,23.53
2018-06-19T10:36:09.204Z,23.23
2018-06-19T10:38:37.476Z,21.90
2018-06-19T10:41:05.725Z,24.50
2018-06-19T10:43:33.996Z,23.87
2018-06-19T10:46:02.230Z,24.40
2018-06-19T10:48:30.479Z,24.07
2018-06-19T10:50:58.783Z,28.20
2018-06-19T10:53:27.048Z,22.57
2018-06-19T10:55:55.314Z,30.20
2018-06-19T10:58:23.563Z,21.23
2018-06-19T11:00:51.815Z,24.67
2018-06-19T11:03:20.096Z,23.50
2018-06-19T11:05:48.371Z,22.43
2018-06-19T11:08:16.657Z,24.17
2018-06-19T11:10:44.687Z,29.37
2018-06-19T11:13:12.958Z,23.03
2018-06-19T11:15:41.256Z,23.67
2018-06-19T11:18:09.501Z,21.97
2018-06-19T11:20:37.955Z,26.03
2018-06-19T11:23:06.228Z,23.23
2018-06-19T11:25:34.506Z,25.80
2018-06-19T11:28:02.799Z,22.60
2018-06-19T11:30:31.064Z,32.63
2018-06-19T11:32:59.352Z,24.80
2018-06-19T11:35:27.604Z,26.73
2018-06-19T11:37:55.875Z,21.13
2018-06-19T11:40:24.150Z,22.40
2018-06-19T11:42:52.387Z,14.60
2018-06-19T11:45:20.658Z,15.63
2018-06-19T11:47:48.902Z,18.23
2018-06-19T11:50:16.927Z,13.33
2018-06-19T11:52:45.255Z,20.30
2018-06-19T11:55:13.524Z,20.07
2018-06-19T11:57:41.551Z,17.10
2018-06-19T12:00:09.856Z,14.97
2018-06-19T12:02:38.100Z,16.73
2018-06-19T12:05:06.396Z,17.27
2018-06-19T12:07:39.964Z,19.60
2018-06-19T12:10:08.525Z,19.10
2018-06-19T12:12:36.880Z,13.97
2018-06-19T12:15:05.270Z,17.37
2018-06-19T12:17:33.504Z,16.23
2018-06-19T12:20:01.920Z,14.20
2018-06-19T12:22:30.223Z,13.90
2018-06-19T12:24:58.761Z,20.97
2018-06-19T12:27:27.056Z,19.70
2018-06-19T12:29:55.322Z,19.63
2018-06-19T12:32:23.869Z,17.87
2018-06-19T12:34:52.108Z,13.47
2018-06-19T12:37:20.155Z,20.83
2018-06-19T12:39:48.409Z,16.93
2018-06-19T12:42:16.653Z,19.63
2018-06-19T12:44:44.944Z,14.47
2018-06-19T12:47:13.244Z,12.20
2018-06-19T12:49:46.814Z,19.57
2018-06-19T12:52:26.299Z,14.77
2018-06-19T12:55:20.521Z,12.93
2018-06-19T12:57:48.937Z,14.87
2018-06-19T13:00:17.212Z,15.87
2018-06-19T13:02:56.879Z,15.73
2018-06-19T13:05:36.512Z,14.23
2018-06-19T13:08:04.917Z,17.30
2018-06-19T13:10:33.183Z,19.43
2018-06-19T13:13:22.880Z,22.53
2018-06-19T13:15:52.106Z,14.40
2018-06-19T13:18:32.899Z,14.00
2018-06-19T13:21:01.381Z,13.43
2018-06-19T13:23:29.862Z,14.20
2018-06-19T13:25:58.145Z,18.90
2018-06-19T13:28:38.259Z,13.13
2018-06-19T13:31:17.983Z,14.60
2018-06-19T13:33:46.250Z,17.70
2018-06-19T13:36:14.642Z,14.00
2018-06-19T13:38:42.912Z,11.33
2018-06-19T13:41:23.864Z,14.33
2018-06-19T13:44:06.058Z,14.13
2018-06-19T13:46:34.362Z,13.97
2018-06-19T13:49:02.752Z,14.00
2018-06-19T13:51:31.044Z,18.67
2018-06-19T13:53:59.330Z,10.27
2018-06-19T13:57:43.492Z,13.93
2018-06-19T14:00:13.680Z,8.63
2018-06-19T14:02:42.130Z,11.80
2018-06-19T14:05:10.997Z,14.73
2018-06-19T14:07:48.508Z,12.60
2018-06-19T14:10:28.790Z,16.30
2018-06-19T14:12:58.412Z,14.00
2018-06-19T14:15:27.868Z,10.70
2018-06-19T14:17:56.292Z,10.27
2018-06-19T14:20:24.579Z,11.10
2018-06-19T14:22:52.822Z,10.70
2018-06-19T14:25:21.404Z,11.10
2018-06-19T14:27:49.669Z,12.93
2018-06-19T14:30:18.048Z,13.70
2018-06-19T14:32:46.823Z,17.63
2018-06-19T14:35:15.050Z,16.97
2018-06-19T14:37:43.584Z,21.57
2018-06-19T14:40:11.973Z,15.00
2018-06-19T14:42:40.257Z,15.60
2018-06-19T14:45:09.360Z,18.70
2018-06-19T14:47:37.620Z,20.33
2018-06-19T14:50:05.916Z,14.30
2018-06-19T14:52:34.187Z,18.00
2018-06-19T14:55:02.516Z,16.30
2018-06-19T14:57:30.787Z,15.33
2018-06-19T14:59:59.244Z,17.37
2018-06-19T15:02:27.473Z,16.40
2018-06-19T15:04:55.712Z,13.93
2018-06-19T15:07:24.028Z,12.30
2018-06-19T15:09:52.904Z,11.70
2018-06-19T15:12:21.269Z,14.83
2018-06-19T15:14:49.530Z,12.87
2018-06-19T15:17:17.825Z,10.90
2018-06-19T15:19:46.088Z,13.57
2018-06-19T15:22:14.347Z,14.40
2018-06-19T15:24:42.620Z,10.07
2018-06-19T15:27:10.876Z,13.97
2018-06-19T15:29:39.231Z,13.33
2018-06-19T15:32:07.495Z,13.10
2018-06-19T15:34:35.780Z,15.10
2018-06-19T15:37:04.029Z,14.13
2018-06-19T15:39:32.288Z,15.97
2018-06-19T15:42:00.531Z,12.60
2018-06-19T15:44:28.847Z,10.90
2018-06-19T15:46:57.163Z,12.97
2018-06-19T15:49:25.442Z,11.63
2018-06-19T15:51:53.815Z,15.73
2018-06-19T15:54:22.160Z,16.93
2018-06-19T15:56:50.492Z,13.43
2018-06-19T15:59:18.964Z,13.13
2018-06-19T16:01:47.266Z,13.40
2018-06-19T16:04:17.649Z,16.10
2018-06-19T16:06:46.207Z,15.10
2018-06-19T16:09:14.499Z,12.07
2018-06-19T16:11:42.772Z,13.57
2018-06-19T16:14:11.058Z,14.53
2018-06-19T16:16:39.360Z,11.43
2018-06-19T16:19:07.620Z,14.90
2018-06-19T16:21:35.880Z,15.60
2018-06-19T16:24:04.136Z,15.23
2018-06-19T16:26:32.376Z,17.17
2018-06-19T16:29:01.732Z,12.93
2018-06-19T16:31:29.992Z,21.53
2018-06-19T16:33:58.276Z,13.17
2018-06-19T16:36:26.544Z,14.33
2018-06-19T16:38:54.799Z,12.80
2018-06-19T16:41:23.164Z,13.30
2018-06-19T16:43:51.492Z,17.63
2018-06-19T16:46:19.904Z,18.70
2018-06-19T16:48:48.188Z,14.37
2018-06-19T16:51:16.455Z,29.83
2018-06-19T16:53:44.752Z,20.20
2018-06-19T16:56:13.624Z,13.87
2018-06-19T16:58:41.883Z,18.77
2018-06-19T17:01:10.175Z,14.17
2018-06-19T17:03:38.489Z,17.00
2018-06-19T17:06:06.768Z,12.00
2018-06-19T17:08:35.007Z,17.33
2018-06-19T17:11:04.037Z,15.57
2018-06-19T17:13:32.460Z,16.73
2018-06-19T17:16:01.028Z,12.43
2018-06-19T17:18:29.774Z,13.33
2018-06-19T17:20:58.626Z,17.50
2018-06-19T17:23:27.435Z,21.87
2018-06-19T17:25:56.032Z,23.97
2018-06-19T17:28:24.686Z,14.33
2018-06-19T17:30:53.168Z,18.53
2018-06-19T17:33:21.427Z,16.00
2018-06-19T17:35:50.477Z,15.80
2018-06-19T17:38:18.918Z,18.27
2018-06-19T17:40:47.448Z,19.70
2018-06-19T17:43:16.175Z,20.00
2018-06-19T17:45:44.856Z,13.83
2018-06-19T17:48:13.363Z,16.60
2018-06-19T17:50:41.628Z,24.07
2018-06-19T17:53:10.829Z,19.10
2018-06-19T17:55:39.832Z,15.20
2018-06-19T17:58:08.459Z,19.80
2018-06-19T18:00:37.013Z,14.33
2018-06-19T18:03:05.828Z,18.10
2018-06-19T18:05:33.835Z,18.87
2018-06-19T18:08:02.100Z,20.13
2018-06-19T18:10:30.425Z,18.20
2018-06-19T18:12:58.463Z,19.60
2018-06-19T18:15:26.827Z,19.13
2018-06-19T18:17:55.083Z,29.53
2018-06-19T18:20:23.473Z,20.23
2018-06-19T18:22:51.746Z,17.63
2018-06-19T18:25:19.992Z,15.73
2018-06-19T18:27:48.256Z,14.20
2018-06-19T18:30:16.533Z,14.83
2018-06-19T18:32:44.766Z,38.07
2018-06-19T18:35:13.008Z,13.43
2018-06-19T18:37:41.252Z,16.27
2018-06-19T18:40:09.524Z,14.50
2018-06-19T18:42:37.759Z,16.23
2018-06-19T18:45:06.041Z,15.73
2018-06-19T18:47:34.371Z,15.33
2018-06-19T18:50:02.747Z,17.87
2018-06-19T18:52:31.220Z,14.40
2018-06-19T18:54:59.500Z,16.40
2018-06-19T18:57:27.779Z,27.97
2018-06-19T18:59:56.020Z,13.63
2018-06-19T19:02:24.267Z,17.77
2018-06-19T19:04:52.550Z,21.97
2018-06-19T19:07:20.792Z,18.87
2018-06-19T19:09:54.492Z,14.20
2018-06-19T19:12:22.713Z,22.13
2018-06-19T19:14:56.259Z,20.40
2018-06-19T19:17:29.941Z,23.90
2018-06-19T19:19:58.406Z,14.60
2018-06-19T19:22:26.757Z,14.30
2018-06-19T19:24:54.982Z,16.13
2018-06-19T19:27:28.703Z,18.20
2018-06-19T19:29:56.958Z,21.90
2018-06-19T19:32:24.934Z,15.77
2018-06-19T19:34:53.169Z,16.37
2018-06-19T19:37:26.765Z,12.27
2018-06-19T19:39:55.007Z,20.70
2018-06-19T19:42:23.476Z,14.97
2018-06-19T19:44:51.710Z,14.87
2018-06-19T19:47:25.271Z,18.50
2018-06-19T19:49:53.734Z,16.67
2018-06-19T19:52:21.971Z,11.77
2018-06-19T19:54:50.200Z,17.80
2018-06-19T19:57:23.784Z,21.87
2018-06-19T19:59:52.074Z,25.33
2018-06-19T20:02:20.313Z,19.57
2018-06-19T20:04:48.563Z,16.17
2018-06-19T20:07:16.892Z,18.77
2018-06-19T20:09:45.184Z,27.83
2018-06-19T20:12:13.596Z,25.47
2018-06-19T20:14:41.848Z,14.50
2018-06-19T20:17:10.140Z,21.00
2018-06-19T20:19:38.531Z,17.50
2018-06-19T20:22:07.729Z,19.90
2018-06-19T20:24:35.979Z,17.17
2018-06-19T20:27:04.231Z,23.17
2018-06-19T20:29:32.498Z,20.30
2018-06-19T20:32:01.157Z,14.80
2018-06-19T20:34:29.444Z,24.93
2018-06-19T20:36:57.686Z,17.50
2018-06-19T20:42:00.799Z,19.47
2018-06-19T20:44:29.091Z,18.97
2018-06-19T20:46:57.335Z,15.93
2018-06-19T20:49:25.655Z,16.40
2018-06-19T20:51:54.143Z,18.10
2018-06-19T20:54:22.425Z,15.30
2018-06-19T20:56:50.737Z,25.90
2018-06-19T20:59:19.189Z,19.50
2018-06-19T21:01:47.450Z,16.63
2018-06-19T21:04:15.732Z,23.93
2018-06-19T21:06:43.980Z,15.43
2018-06-19T21:09:12.236Z,15.10
2018-06-19T21:11:40.512Z,15.63
2018-06-19T21:14:08.744Z,15.70
2018-06-19T21:16:37.008Z,14.57
2018-06-19T21:19:05.427Z,21.60
2018-06-19T21:21:33.648Z,16.10
2018-06-19T21:24:01.934Z,19.80
2018-06-19T21:26:30.188Z,17.30
2018-06-19T21:28:58.474Z,18.30
2018-06-19T21:31:26.749Z,16.13
2018-06-19T21:33:55.102Z,18.03
2018-06-19T21:36:23.366Z,16.03
2018-06-19T21:38:51.612Z,21.87
2018-06-19T21:41:19.916Z,19.83
2018-06-19T21:43:48.143Z,17.57
2018-06-19T21:46:16.396Z,23.90
2018-06-19T21:48:44.647Z,20.53
2018-06-19T21:51:12.894Z,25.23
2018-06-19T21:53:41.544Z,24.53
2018-06-19T21:56:09.785Z,22.50
2018-06-19T21:58:38.064Z,19.70
2018-06-19T22:01:06.445Z,23.90
2018-06-19T22:03:34.723Z,22.67
2018-06-19T22:06:03.032Z,22.57
2018-06-19T22:08:36.696Z,24.57
2018-06-19T22:11:05.184Z,20.97
2018-06-19T22:13:33.611Z,23.90
2018-06-19T22:16:01.957Z,22.90
2018-06-19T22:18:30.432Z,23.43
2018-06-19T22:20:58.689Z,38.33
2018-06-19T22:23:26.944Z,34.10
2018-06-19T22:25:55.189Z,30.00
2018-06-19T22:28:23.469Z,28.10
2018-06-19T22:30:51.723Z,27.10
2018-06-19T22:33:19.970Z,22.20
2018-06-19T22:35:48.023Z,20.57
2018-06-19T22:38:16.268Z,25.53
2018-06-19T22:40:44.703Z,27.87
2018-06-19T22:43:12.963Z,23.17
2018-06-19T22:45:41.241Z,23.37
2018-06-19T22:48:09.534Z,24.43
2018-06-19T22:50:37.800Z,21.40
2018-06-19T22:53:06.374Z,23.00
2018-06-19T22:55:34.752Z,25.47
2018-06-19T22:58:03.032Z,22.07
2018-06-19T23:00:31.299Z,30.73
2018-06-19T23:03:02.804Z,28.03
2018-06-19T23:05:31.216Z,32.93
2018-06-19T23:07:59.668Z,27.77
2018-06-19T23:10:28.687Z,24.97
2018-06-19T23:12:57.012Z,32.87
2018-06-19T23:15:25.469Z,27.03
2018-06-19T23:17:54.004Z,29.40
2018-06-19T23:20:22.321Z,29.40
2018-06-19T23:22:51.413Z,29.13
2018-06-19T23:25:20.076Z,26.30
2018-06-19T23:27:48.352Z,31.53
2018-06-19T23:30:17.864Z,37.37
2018-06-19T23:32:46.125Z,35.93
2018-06-19T23:35:14.391Z,32.83
2018-06-19T23:37:43.106Z,29.23
2018-06-19T23:40:11.461Z,30.50
2018-06-19T23:42:39.743Z,33.67
2018-06-19T23:45:07.727Z,33.67
2018-06-19T23:47:36.056Z,42.40
2018-06-19T23:50:04.452Z,36.77
2018-06-19T23:52:32.725Z,36.40
2018-06-19T23:55:01.011Z,32.63
2018-06-19T23:57:29.347Z,38.60
2018-06-19T23:59:57.776Z,45.87
